Time;durP1;ratioP1;P1;durP2;ratioP2;P2;SDS_P1;SDS_P2;PMS_P1;PMS_P2;Temp;Humidity;BMP_temperature;BMP_pressure;BME280_temperature;BME280_humidity;BME280_pressure;Samples;Min_cycle;Max_cycle;Signal;HPM_P1;HPM_P2
2020/12/06 00:12:42;;;;;;;260.23;79.43;;;;;;;8.23;85.95;99463.88;4785876;29;20094;-80
2020/12/06 00:15:30;;;;;;;193.75;66.95;;;;;;;8.22;85.74;99459.59;4839280;29;20033;-81
2020/12/06 00:17:55;;;;;;;;;;;;;;;8.18;85.66;99459.28;4838646;29;20115;-80
2020/12/06 00:20:21;;;;;;;214.43;70.18;;;;;;;8.15;86.13;99467.75;4831822;29;19944;-78
2020/12/06 00:22:46;;;;;;;236.30;69.75;;;;;;;8.15;85.88;99473.91;4843225;29;20021;-79
2020/12/06 00:25:11;;;;;;;243.23;77.93;;;;;;;8.12;86.12;99469.06;4845248;29;20034;-79
2020/12/06 00:27:37;;;;;;;226.75;74.05;;;;;;;8.12;85.92;99463.72;4834954;29;20034;-79
2020/12/06 00:30:08;;;;;;;219.73;73.07;;;;;;;8.14;85.88;99461.63;4835843;29;20034;-79
2020/12/06 00:32:33;;;;;;;200.77;66.72;;;;;;;8.12;86.15;99457.63;4829034;29;20399;-79
2020/12/06 00:34:59;;;;;;;201.60;64.10;;;;;;;8.14;86.29;99458.97;4829152;29;20033;-80
2020/12/06 00:37:24;;;;;;;150.73;51.90;;;;;;;8.12;85.87;99458.41;4828766;29;20114;-80
2020/12/06 00:39:51;;;;;;;170.23;50.55;;;;;;;8.12;86.02;99460.28;4832526;29;20097;-82
2020/12/06 00:42:16;;;;;;;163.60;52.30;;;;;;;8.08;86.16;99451.97;4836622;29;20061;-80
2020/12/06 00:44:43;;;;;;;181.68;52.45;;;;;;;8.07;86.28;99454.88;4827726;29;20026;-78
2020/12/06 00:47:08;;;;;;;172.38;53.78;;;;;;;8.02;86.57;99455.63;4827944;29;20034;-79
2020/12/06 00:49:33;;;;;;;147.40;43.92;;;;;;;7.97;86.53;99456.38;4827767;29;20493;-79
2020/12/06 00:51:59;;;;;;;145.25;44.45;;;;;;;7.94;86.80;99456.06;4829511;29;20029;-81
2020/12/06 00:54:24;;;;;;;110.25;38.55;;;;;;;7.92;87.22;99456.31;4828127;29;20495;-79
2020/12/06 00:59:31;;;;;;;108.25;33.70;;;;;;;7.93;87.30;99455.25;4873784;23;20436;-79
2020/12/06 01:01:56;;;;;;;101.20;37.33;;;;;;;7.94;87.11;99450.75;4845054;29;20108;-81
2020/12/06 01:04:21;;;;;;;109.70;35.80;;;;;;;7.96;86.91;99454.75;4850185;29;20042;-79
2020/12/06 01:06:47;;;;;;;133.90;37.75;;;;;;;7.94;86.92;99440.88;4846427;29;20037;-79
2020/12/06 01:09:12;;;;;;;112.05;38.00;;;;;;;7.94;87.24;99442.75;4845398;29;20069;-79
2020/12/06 01:11:38;;;;;;;111.78;40.47;;;;;;;7.92;87.56;99439.53;4845280;29;20109;-78
2020/12/06 01:14:03;;;;;;;135.40;39.83;;;;;;;7.93;87.56;99439.25;4844820;29;20064;-79
2020/12/06 01:16:28;;;;;;;112.30;35.83;;;;;;;7.97;87.59;99447.56;4845240;29;20029;-79
2020/12/06 01:18:54;;;;;;;111.50;35.25;;;;;;;8.00;87.18;99445.22;4844188;29;20138;-79
2020/12/06 01:21:19;;;;;;;111.05;35.28;;;;;;;8.02;87.26;99443.13;4844953;29;20574;-79
2020/12/06 01:23:44;;;;;;;105.60;34.28;;;;;;;8.08;86.83;99444.00;4845107;29;20044;-79
2020/12/06 01:26:11;;;;;;;111.95;37.20;;;;;;;8.11;86.82;99440.81;4844391;29;20458;-80
2020/12/06 01:28:37;;;;;;;119.95;36.95;;;;;;;8.15;86.39;99441.13;4850479;29;20132;-80
2020/12/06 01:31:02;;;;;;;98.78;31.60;;;;;;;8.18;86.49;99436.09;4844822;29;20057;-80
2020/12/06 01:33:49;;;;;;;111.93;35.20;;;;;;;8.23;85.95;99439.88;4844752;29;20529;-82
2020/12/06 01:36:15;;;;;;;118.95;35.33;;;;;;;8.24;86.19;99441.47;4844325;29;20037;-78
2020/12/06 01:38:40;;;;;;;105.80;34.72;;;;;;;8.25;86.12;99430.59;4843560;29;20074;-78
2020/12/06 01:41:06;;;;;;;111.57;35.63;;;;;;;8.28;85.93;99431.94;4843105;29;20525;-76
2020/12/06 01:43:31;;;;;;;117.50;36.90;;;;;;;8.28;85.66;99427.41;4859635;29;20045;-77
2020/12/06 01:45:56;;;;;;;114.80;35.97;;;;;;;8.30;86.07;99437.78;4860567;29;20435;-78
2020/12/06 01:48:22;;;;;;;108.15;34.45;;;;;;;8.29;85.58;99429.00;4860306;29;20514;-77
2020/12/06 01:50:47;;;;;;;113.25;33.55;;;;;;;8.30;85.64;99427.13;4843923;29;20112;-78
2020/12/06 01:53:13;;;;;;;113.85;36.10;;;;;;;8.26;85.49;99421.50;4844627;29;20038;-78
2020/12/06 01:55:40;;;;;;;121.95;38.25;;;;;;;8.23;86.19;99411.38;4844933;29;20022;-78
2020/12/06 01:58:07;;;;;;;91.63;35.40;;;;;;;8.23;85.65;99421.22;4858896;29;20093;-78
2020/12/06 02:00:33;;;;;;;121.82;37.70;;;;;;;8.20;86.29;99421.72;4843914;29;20097;-78
2020/12/06 02:02:59;;;;;;;131.45;37.42;;;;;;;8.22;86.21;99416.94;4843839;29;20040;-78
2020/12/06 02:05:25;;;;;;;128.80;38.78;;;;;;;8.22;85.60;99420.41;4843781;29;20030;-78
2020/12/06 02:07:52;;;;;;;144.25;39.05;;;;;;;8.23;86.16;99418.56;4843268;29;20048;-78
2020/12/06 02:10:17;;;;;;;109.25;37.25;;;;;;;8.25;85.79;99413.78;4843622;29;20128;-78
2020/12/06 02:12:49;;;;;;;123.25;36.40;;;;;;;8.23;85.41;99416.69;4843763;29;20125;-78
2020/12/06 02:15:15;;;;;;;141.30;38.63;;;;;;;8.27;85.58;99422.31;4843005;29;20068;-79
2020/12/06 02:17:40;;;;;;;139.65;42.70;;;;;;;8.27;85.34;99420.44;4843586;29;20644;-78
2020/12/06 02:20:06;;;;;;;133.48;43.65;;;;;;;8.24;85.88;99417.50;4849954;29;20038;-79
2020/12/06 02:22:31;;;;;;;128.68;42.63;;;;;;;8.20;85.78;99411.84;4843897;29;20034;-79
2020/12/06 02:24:57;;;;;;;119.47;41.15;;;;;;;8.21;85.76;99410.81;4843678;29;20066;-79
2020/12/06 02:27:22;;;;;;;122.97;41.22;;;;;;;8.21;86.03;99408.13;4843242;29;20041;-80
2020/12/06 02:29:47;;;;;;;127.00;42.15;;;;;;;8.23;86.12;99408.69;4842467;29;20068;-78
2020/12/06 02:32:13;;;;;;;115.55;42.60;;;;;;;8.25;85.75;99411.94;4842639;29;20811;-79
2020/12/06 02:34:38;;;;;;;134.45;42.75;;;;;;;8.28;85.49;99410.63;4843713;29;20093;-80
2020/12/06 02:37:04;;;;;;;104.72;37.90;;;;;;;8.30;85.52;99409.31;4843575;29;20128;-79
2020/12/06 02:39:29;;;;;;;123.55;40.20;;;;;;;8.31;85.50;99413.59;4844023;29;20093;-79
2020/12/06 02:41:55;;;;;;;123.80;38.05;;;;;;;8.33;85.41;99411.44;4842951;29;20411;-79
2020/12/06 02:44:20;;;;;;;126.15;40.17;;;;;;;8.37;85.47;99413.63;4842417;29;20117;-80
2020/12/06 02:46:45;;;;;;;111.05;40.63;;;;;;;8.36;84.82;99412.84;4841799;29;20034;-79
2020/12/06 02:49:11;;;;;;;82.13;30.20;;;;;;;8.37;85.13;99410.97;4842427;29;20029;-79
2020/12/06 02:51:37;;;;;;;99.95;34.22;;;;;;;8.34;85.60;99414.94;4844107;29;20624;-81
2020/12/06 02:54:03;;;;;;;116.32;36.95;;;;;;;8.34;85.54;99414.94;4842961;29;20033;-80
2020/12/06 02:56:28;;;;;;;108.60;37.72;;;;;;;8.36;85.21;99414.69;4843871;29;20033;-80
2020/12/06 02:58:54;;;;;;;100.85;36.63;;;;;;;8.35;85.56;99413.88;4843079;29;20048;-80
2020/12/06 03:01:19;;;;;;;100.95;35.80;;;;;;;8.36;85.39;99417.34;4842833;29;20109;-80
2020/12/06 03:04:06;;;;;;;106.28;36.55;;;;;;;8.38;85.38;99420.56;4843381;29;20041;-81
2020/12/06 03:06:49;;;;;;;112.00;38.33;;;;;;;8.38;85.12;99412.56;4846130;29;20048;-80
2020/12/06 03:09:15;;;;;;;110.13;36.95;;;;;;;8.40;85.26;99421.09;4842409;29;20030;-80
2020/12/06 03:11:40;;;;;;;100.07;35.60;;;;;;;8.40;84.99;99419.25;4842359;29;20025;-80
2020/12/06 03:14:06;;;;;;;128.98;37.13;;;;;;;8.44;85.08;99420.34;4842308;29;20021;-80
2020/12/06 03:16:31;;;;;;;105.75;36.03;;;;;;;8.45;84.96;99421.19;4841842;29;20055;-80
2020/12/06 03:18:56;;;;;;;96.85;33.65;;;;;;;8.45;84.78;99418.50;4841342;29;20032;-79
2020/12/06 03:21:22;;;;;;;98.43;32.80;;;;;;;8.46;84.75;99420.13;4842409;29;20045;-79
2020/12/06 03:23:47;;;;;;;96.63;33.30;;;;;;;8.43;84.73;99413.41;4843438;29;20124;-81
2020/12/06 03:26:13;;;;;;;96.95;34.47;;;;;;;8.38;84.55;99402.72;4844338;29;20037;-79
2020/12/06 03:28:38;;;;;;;98.55;35.10;;;;;;;8.39;84.90;99412.31;4843495;29;20032;-80
2020/12/06 03:31:03;;;;;;;107.95;35.40;;;;;;;8.39;84.61;99409.66;4842777;29;20045;-81
2020/12/06 03:33:29;;;;;;;87.38;32.92;;;;;;;8.40;85.17;99405.13;4844327;29;20406;-80
2020/12/06 03:35:54;;;;;;;101.95;33.20;;;;;;;8.40;85.01;99399.78;4841337;29;20033;-80
2020/12/06 03:38:20;;;;;;;88.20;31.35;;;;;;;8.40;84.83;99411.25;4842705;29;20554;-79
2020/12/06 03:40:46;;;;;;;99.70;33.17;;;;;;;8.44;84.98;99404.38;4844007;29;20039;-82
2020/12/06 03:43:12;;;;;;;97.47;31.73;;;;;;;8.43;84.79;99408.09;4842438;29;20038;-81
2020/12/06 03:45:37;;;;;;;100.50;35.83;;;;;;;8.45;84.53;99413.97;4842217;29;20424;-81
2020/12/06 03:48:04;;;;;;;89.95;34.35;;;;;;;8.48;84.72;99412.69;4842107;29;20032;-81
2020/12/06 03:50:30;;;;;;;102.03;38.30;;;;;;;8.49;84.67;99408.97;4841026;29;20045;-82
2020/12/06 03:52:55;;;;;;;99.38;39.47;;;;;;;8.51;84.41;99406.88;4841737;29;20057;-79
2020/12/06 03:55:21;;;;;;;113.72;50.33;;;;;;;8.53;84.39;99404.72;4841762;29;20061;-79
2020/12/06 04:01:43;;;;;;;115.85;44.85;;;;;;;8.55;84.13;99407.97;4796420;29;20046;-81
2020/12/06 04:04:09;;;;;;;107.55;41.13;;;;;;;8.56;84.48;99409.56;4861117;29;20072;-79
2020/12/06 04:07:17;;;;;;;114.80;41.42;;;;;;;8.58;83.89;99406.63;4845199;29;20599;-82
2020/12/06 04:09:47;;;;;;;114.57;36.63;;;;;;;8.55;83.74;99407.97;4839428;29;20045;-80
2020/12/06 04:12:20;;;;;;;108.43;40.30;;;;;;;8.56;84.09;99401.56;4845310;29;20033;-83
2020/12/06 04:14:46;;;;;;;97.00;36.15;;;;;;;8.55;83.57;99407.97;4845478;29;20029;-79
2020/12/06 04:17:11;;;;;;;97.32;36.65;;;;;;;8.56;83.79;99414.09;4845579;29;20041;-81
2020/12/06 04:19:38;;;;;;;100.40;40.88;;;;;;;8.55;83.58;99413.28;4844910;29;20034;-82
2020/12/06 04:22:06;;;;;;;96.35;37.38;;;;;;;8.56;83.46;99417.56;4829912;29;20093;-81
2020/12/06 04:24:34;;;;;;;96.20;34.20;;;;;;;8.57;83.87;99421.03;4845198;29;20026;-80
2020/12/06 04:27:00;;;;;;;109.50;39.17;;;;;;;8.56;83.54;99414.91;4844900;29;20092;-78
2020/12/06 04:29:26;;;;;;;104.70;39.03;;;;;;;8.54;83.50;99419.66;4844378;29;20033;-79
2020/12/06 04:31:51;;;;;;;100.28;40.35;;;;;;;8.55;83.64;99423.16;4844730;29;20033;-79
2020/12/06 04:34:16;;;;;;;118.10;41.20;;;;;;;8.56;83.55;99425.56;4845060;29;20036;-78
2020/12/06 04:36:42;;;;;;;119.88;44.95;;;;;;;8.56;84.00;99422.91;4844524;29;20022;-78
2020/12/06 04:39:07;;;;;;;126.47;47.33;;;;;;;8.58;83.80;99425.31;4844993;29;20037;-79
2020/12/06 04:41:33;;;;;;;121.15;51.97;;;;;;;8.58;83.63;99439.47;4844847;29;20033;-79
2020/12/06 04:43:58;;;;;;;122.60;50.45;;;;;;;8.59;83.80;99442.91;4860243;29;20501;-79
2020/12/06 04:46:26;;;;;;;112.82;50.75;;;;;;;8.59;83.61;99442.91;4844063;29;20120;-79
2020/12/06 04:48:57;;;;;;;123.30;45.37;;;;;;;8.60;83.49;99444.53;4844018;29;20125;-78
2020/12/06 04:51:27;;;;;;;113.38;42.22;;;;;;;8.59;83.47;99449.06;4843491;29;20037;-79
2020/12/06 04:54:01;;;;;;;117.22;40.80;;;;;;;8.61;83.16;99449.59;4860150;29;20036;-78
2020/12/06 04:56:29;;;;;;;114.40;40.17;;;;;;;8.60;83.35;99444.53;4843976;29;20030;-79
2020/12/06 04:59:00;;;;;;;123.72;40.67;;;;;;;8.61;82.89;99449.59;4843605;29;20484;-80
2020/12/06 05:01:32;;;;;;;118.90;39.88;;;;;;;8.59;83.24;99443.75;4844437;29;20468;-79
2020/12/06 05:03:59;;;;;;;88.43;36.15;;;;;;;8.59;82.99;99443.75;4844173;29;20060;-80
2020/12/06 05:06:28;;;;;;;106.97;37.13;;;;;;;8.61;82.86;99435.47;4843573;29;20025;-80
2020/12/06 05:08:56;;;;;;;99.07;37.33;;;;;;;8.60;83.12;99444.53;4856072;29;20046;-79
2020/12/06 05:11:22;;;;;;;110.65;38.45;;;;;;;8.60;82.98;99447.97;4847167;29;20395;-79
2020/12/06 05:13:47;;;;;;;112.30;37.45;;;;;;;8.60;82.84;99450.66;4843565;29;20033;-78
2020/12/06 05:16:14;;;;;;;106.20;36.40;;;;;;;8.57;82.89;99445.84;4860740;29;20034;-79
2020/12/06 05:18:40;;;;;;;100.13;34.17;;;;;;;8.56;82.98;99452.22;4843374;29;20128;-79
2020/12/06 05:21:05;;;;;;;104.57;37.25;;;;;;;8.57;83.00;99448.50;4843354;29;20124;-78
2020/12/06 05:23:31;;;;;;;101.28;34.65;;;;;;;8.57;83.30;99447.69;4843510;29;20034;-78
2020/12/06 05:25:57;;;;;;;103.25;35.42;;;;;;;8.55;83.31;99445.28;4843295;29;20034;-77
2020/12/06 05:28:24;;;;;;;97.95;34.83;;;;;;;8.52;83.23;99443.13;4857206;29;20041;-78
2020/12/06 05:30:50;;;;;;;108.80;35.53;;;;;;;8.49;83.26;99455.09;4843076;29;20036;-79
2020/12/06 05:33:18;;;;;;;102.50;34.75;;;;;;;8.49;83.30;99454.28;4844039;29;20467;-79
2020/12/06 05:35:43;;;;;;;;;;;;;;;8.51;83.58;99454.03;4843995;29;20491;-79
2020/12/06 05:38:09;;;;;;;103.35;33.67;;;;;;;8.49;83.25;99456.94;4843387;29;19919;-78
2020/12/06 05:40:44;;;;;;;99.30;34.63;;;;;;;8.51;83.63;99459.34;4843498;29;20037;-78
2020/12/06 05:43:09;;;;;;;97.00;33.50;;;;;;;8.49;83.25;99454.28;4860007;29;20112;-78
2020/12/06 05:45:35;;;;;;;92.13;29.92;;;;;;;8.51;83.58;99459.34;4859269;29;20052;-78
2020/12/06 05:48:00;;;;;;;81.18;29.35;;;;;;;8.51;83.28;99457.50;4843129;29;20036;-77
2020/12/06 05:50:25;;;;;;;77.05;29.83;;;;;;;8.56;83.50;99462.09;4860605;29;20072;-78
2020/12/06 05:52:56;;;;;;;82.75;29.58;;;;;;;8.54;83.78;99464.19;4844179;29;20048;-78
2020/12/06 05:55:22;;;;;;;73.55;30.65;;;;;;;8.57;83.75;99467.16;4844060;29;20069;-78
2020/12/06 05:57:47;;;;;;;80.88;28.80;;;;;;;8.60;83.32;99463.19;4842807;29;20512;-78
2020/12/06 06:00:14;;;;;;;81.22;30.88;;;;;;;8.62;83.30;99475.22;4843731;29;20057;-78
2020/12/06 06:02:43;;;;;;;64.53;28.98;;;;;;;8.63;83.44;99468.03;4842650;29;20033;-79
2020/12/06 06:05:11;;;;;;;95.10;33.03;;;;;;;8.63;83.35;99479.50;4842847;29;20045;-77
2020/12/06 06:07:37;;;;;;;86.30;32.47;;;;;;;8.66;83.42;99475.50;4842762;29;20044;-78
2020/12/06 06:10:05;;;;;;;87.85;32.70;;;;;;;8.66;83.13;99472.84;4843116;29;20101;-80
2020/12/06 06:12:42;;;;;;;70.80;30.30;;;;;;;8.66;83.68;99478.19;4843281;29;20033;-81
2020/12/06 06:15:07;;;;;;;78.40;30.33;;;;;;;8.67;83.38;99474.47;4842591;29;20049;-79
2020/12/06 06:17:32;;;;;;;76.65;30.67;;;;;;;8.65;83.63;99469.38;4841962;29;20036;-78
2020/12/06 06:19:59;;;;;;;86.95;33.70;;;;;;;8.64;83.33;99475.75;4841794;29;20032;-79
2020/12/06 06:22:32;;;;;;;96.95;40.30;;;;;;;8.62;83.48;99479.75;4842883;29;20058;-78
2020/12/06 06:25:00;;;;;;;129.50;59.42;;;;;;;8.60;83.58;99476.50;4844025;29;20464;-77
2020/12/06 06:27:30;;;;;;;;;;;;;;;8.61;83.70;99475.47;4842761;29;20045;-78
2020/12/06 06:29:55;;;;;;;120.18;52.83;;;;;;;8.58;83.84;99474.13;4842797;29;20329;-78
2020/12/06 06:32:22;;;;;;;141.77;66.03;;;;;;;8.58;83.67;99481.28;4843755;29;20078;-78
2020/12/06 06:34:48;;;;;;;157.20;64.75;;;;;;;8.57;83.72;99477.00;4844022;29;20571;-78
2020/12/06 06:37:15;;;;;;;154.43;64.80;;;;;;;8.58;83.38;99486.63;4843587;29;20085;-80
2020/12/06 06:39:48;;;;;;;169.13;78.35;;;;;;;8.57;83.45;99483.16;4843572;29;20041;-80
2020/12/06 06:42:33;;;;;;;197.00;94.50;;;;;;;8.54;83.90;99480.97;4871352;29;20049;-81
2020/12/06 06:45:12;;;;;;;183.38;86.82;;;;;;;8.52;83.81;99485.78;4860269;29;20064;-80
2020/12/06 06:47:40;;;;;;;197.25;94.65;;;;;;;8.52;84.23;99491.13;4843099;29;20089;-79
2020/12/06 06:50:10;;;;;;;157.50;73.38;;;;;;;8.52;84.30;99493.78;4841966;29;20514;-80
2020/12/06 06:52:40;;;;;;;123.05;55.40;;;;;;;8.56;84.41;99488.75;4842130;29;20042;-80
2020/12/06 06:55:05;;;;;;;123.85;56.80;;;;;;;8.57;84.44;99493.00;4842540;29;20065;-77
2020/12/06 06:57:31;;;;;;;181.40;91.00;;;;;;;8.61;84.28;99499.47;4842617;29;20550;-80
2020/12/06 06:59:59;;;;;;;178.70;82.38;;;;;;;8.64;83.94;99497.09;4842566;29;20041;-80
2020/12/06 07:02:41;;;;;;;139.23;67.78;;;;;;;8.67;84.30;99487.78;4841300;29;20491;-81
2020/12/06 07:05:20;;;;;;;122.90;58.97;;;;;;;8.68;83.91;99489.41;4857667;29;20041;-79
2020/12/06 07:07:46;;;;;;;126.63;60.40;;;;;;;8.67;83.92;99489.63;4824374;29;20041;-80
2020/12/06 07:10:23;;;;;;;121.70;59.22;;;;;;;8.66;83.73;99494.16;4839157;29;20033;-80
2020/12/06 07:12:53;;;;;;;116.65;52.95;;;;;;;8.69;84.16;99501.69;4842090;29;20034;-81
2020/12/06 07:15:23;;;;;;;139.98;63.03;;;;;;;8.74;84.20;99500.91;4841696;29;20459;-81
2020/12/06 07:17:50;;;;;;;141.68;68.88;;;;;;;8.75;84.11;99498.00;4841603;29;20033;-80
2020/12/06 07:20:20;;;;;;;148.15;68.15;;;;;;;8.83;83.93;99506.59;4842017;29;20037;-84
2020/12/06 07:22:47;;;;;;;133.95;64.50;;;;;;;8.86;83.72;99504.25;4841464;29;20057;-83
2020/12/06 07:25:14;;;;;;;147.25;70.07;;;;;;;8.89;83.67;99503.72;4841275;29;20029;-79
2020/12/06 07:27:40;;;;;;;162.73;78.30;;;;;;;8.93;83.14;99499.47;4841231;29;20033;-79
2020/12/06 07:30:11;;;;;;;174.70;86.32;;;;;;;8.95;83.11;99501.91;4841407;29;20526;-80
2020/12/06 07:32:37;;;;;;;143.93;71.25;;;;;;;8.97;82.96;99495.25;4843459;29;20670;-82
2020/12/06 07:35:05;;;;;;;150.98;71.28;;;;;;;8.97;83.08;99494.44;4829231;29;20029;-79
2020/12/06 07:37:30;;;;;;;122.80;59.88;;;;;;;8.96;82.98;99500.84;4844638;29;20169;-79
2020/12/06 07:39:55;;;;;;;119.60;61.55;;;;;;;8.99;83.44;99507.53;4844866;29;20120;-80
2020/12/06 07:42:23;;;;;;;144.93;74.75;;;;;;;9.00;83.13;99509.94;4860425;29;20068;-78
2020/12/06 07:44:54;;;;;;;147.15;75.65;;;;;;;9.02;83.07;99507.84;4860938;29;20034;-78
2020/12/06 07:47:21;;;;;;;130.55;68.63;;;;;;;9.05;83.07;99504.66;4860281;29;20044;-78
2020/12/06 07:49:55;;;;;;;132.32;66.20;;;;;;;9.08;82.91;99509.50;4844644;29;20044;-81
2020/12/06 07:52:25;;;;;;;142.75;70.30;;;;;;;9.10;82.98;99507.34;4843999;29;20044;-80
2020/12/06 07:55:07;;;;;;;159.45;76.40;;;;;;;9.14;82.75;99504.97;4844027;29;20079;-79
2020/12/06 07:57:46;;;;;;;171.45;85.70;;;;;;;9.16;83.10;99500.19;4844553;29;20662;-79
2020/12/06 08:00:13;;;;;;;168.32;85.53;;;;;;;9.19;82.92;99502.38;4844106;29;20060;-79
2020/12/06 08:02:46;;;;;;;179.95;89.97;;;;;;;9.21;82.70;99507.44;4844217;29;20030;-79
2020/12/06 08:05:16;;;;;;;171.82;87.57;;;;;;;9.22;82.18;99496.50;4861514;29;20033;-78
2020/12/06 08:07:45;;;;;;;184.25;92.68;;;;;;;9.25;82.44;99498.69;4845869;29;20513;-78
2020/12/06 08:10:14;;;;;;;205.05;100.25;;;;;;;9.27;82.24;99491.19;4844458;29;20050;-79
2020/12/06 08:12:40;;;;;;;;;;;;;;;9.31;82.13;99496.84;4844481;29;20410;-81
2020/12/06 08:15:06;;;;;;;233.18;105.10;;;;;;;9.32;82.32;99493.13;4828863;29;19920;-79
2020/12/06 08:17:50;;;;;;;240.98;110.78;;;;;;;9.33;82.10;99489.38;4843447;29;20120;-82
2020/12/06 08:20:17;;;;;;;268.48;119.30;;;;;;;9.36;82.22;99496.06;4844093;29;20029;-79
2020/12/06 08:22:57;;;;;;;249.52;115.03;;;;;;;9.38;81.50;99493.97;4843880;29;20521;-78
2020/12/06 08:25:31;;;;;;;245.75;121.10;;;;;;;9.40;81.55;99497.19;4847254;29;20037;-79
2020/12/06 08:28:00;;;;;;;257.60;122.90;;;;;;;9.44;81.19;99498.28;4838883;29;20033;-80
2020/12/06 08:30:27;;;;;;;262.13;121.07;;;;;;;9.44;81.44;99485.72;4860195;29;20041;-78
2020/12/06 08:32:54;;;;;;;270.00;130.00;;;;;;;9.49;81.46;99492.16;4843451;29;20039;-80
2020/12/06 08:35:20;;;;;;;251.18;127.70;;;;;;;9.52;81.36;99491.63;4844045;29;20129;-79
2020/12/06 08:37:46;;;;;;;271.58;137.02;;;;;;;9.54;81.05;99484.97;4844124;29;20447;-79
2020/12/06 08:40:12;;;;;;;252.35;129.90;;;;;;;9.57;81.41;99473.78;4843294;29;20053;-79
2020/12/06 08:42:38;;;;;;;244.07;127.05;;;;;;;9.59;81.04;99485.03;4839286;29;20046;-79
2020/12/06 08:45:04;;;;;;;265.05;134.60;;;;;;;9.64;81.06;99472.75;4843346;29;20036;-80
2020/12/06 08:47:48;;;;;;;252.23;135.55;;;;;;;9.65;80.92;99471.69;4842880;29;20029;-77
2020/12/06 08:50:15;;;;;;;250.52;132.45;;;;;;;9.66;80.91;99465.28;4860454;29;20079;-77
2020/12/06 08:52:42;;;;;;;244.23;129.20;;;;;;;9.67;80.55;99466.91;4860090;29;20109;-76
2020/12/06 08:55:36;;;;;;;247.07;128.25;;;;;;;9.69;80.55;99459.41;4843360;29;20411;-76
2020/12/06 08:58:01;;;;;;;237.85;122.72;;;;;;;9.69;80.55;99454.91;4860079;29;20033;-77
2020/12/06 09:00:27;;;;;;;228.60;120.07;;;;;;;9.69;80.79;99454.91;4842019;29;20049;-77
2020/12/06 09:02:55;;;;;;;237.43;125.80;;;;;;;9.71;81.01;99449.28;4842927;29;20061;-77
2020/12/06 09:05:20;;;;;;;221.82;119.13;;;;;;;9.72;80.84;99450.91;4860306;29;20034;-77
2020/12/06 09:07:46;;;;;;;220.65;114.78;;;;;;;9.76;81.21;99455.47;4837971;29;20045;-77
2020/12/06 09:10:11;;;;;;;196.80;108.22;;;;;;;9.79;80.75;99448.81;4859781;29;20092;-78
2020/12/06 09:12:37;;;;;;;212.23;113.05;;;;;;;9.83;80.75;99443.75;4843347;29;20030;-77
2020/12/06 09:15:07;;;;;;;201.13;108.53;;;;;;;9.87;80.83;99448.28;4842422;29;20067;-77
2020/12/06 09:17:36;;;;;;;179.95;98.80;;;;;;;9.88;81.20;99436.53;4841526;29;20173;-77
2020/12/06 09:20:02;;;;;;;164.80;90.20;;;;;;;9.91;81.01;99438.69;4843729;29;20060;-76
2020/12/06 09:22:28;;;;;;;162.65;86.85;;;;;;;9.94;80.90;99435.47;4842745;29;20033;-77
2020/12/06 09:24:53;;;;;;;179.20;95.25;;;;;;;9.98;80.58;99432.31;4843350;29;20040;-76
2020/12/06 09:27:18;;;;;;;184.82;96.25;;;;;;;10.01;80.65;99432.59;4859260;29;20418;-77
2020/12/06 09:29:44;;;;;;;173.70;89.20;;;;;;;10.03;80.26;99427.78;4842867;29;20170;-78
2020/12/06 09:32:09;;;;;;;172.07;94.18;;;;;;;10.03;80.25;99419.78;4842463;29;20101;-77
2020/12/06 09:34:34;;;;;;;189.60;100.32;;;;;;;10.04;80.26;99416.00;4842992;29;20375;-77
2020/12/06 09:37:00;;;;;;;203.38;107.38;;;;;;;10.07;79.86;99420.03;4842725;29;20034;-76
2020/12/06 09:39:25;;;;;;;139.68;80.78;;;;;;;10.05;79.74;99417.63;4859108;29;20418;-76
2020/12/06 09:41:51;;;;;;;179.93;95.13;;;;;;;10.03;80.04;99417.09;4842124;29;20491;-76
2020/12/06 09:44:17;;;;;;;193.93;98.22;;;;;;;9.99;80.19;99399.19;4858616;29;20125;-76
2020/12/06 09:46:42;;;;;;;184.77;99.47;;;;;;;10.05;80.23;99412.28;4859314;29;20029;-77
2020/12/06 09:49:07;;;;;;;198.50;102.57;;;;;;;10.09;80.59;99410.69;4859748;29;20040;-76
2020/12/06 09:51:33;;;;;;;161.90;84.75;;;;;;;10.12;80.13;99411.22;4842087;29;20056;-81
2020/12/06 09:54:00;;;;;;;134.80;75.40;;;;;;;10.10;80.09;99414.94;4841836;29;20314;-79
2020/12/06 09:56:28;;;;;;;146.95;73.20;;;;;;;10.13;80.28;99412.84;4842780;29;20033;-80
2020/12/06 09:58:54;;;;;;;146.77;80.85;;;;;;;10.14;80.13;99406.44;4841883;29;20046;-80
2020/12/06 10:01:19;;;;;;;147.65;79.20;;;;;;;10.18;79.98;99404.81;4842257;29;20121;-82
2020/12/06 10:03:45;;;;;;;92.32;48.63;;;;;;;10.17;79.83;99398.69;4841753;29;20030;-84
2020/12/06 10:06:10;;;;;;;96.28;50.38;;;;;;;10.16;79.81;99402.41;4842531;29;20034;-79
2020/12/06 10:08:35;;;;;;;93.72;48.95;;;;;;;10.18;80.05;99397.63;4830948;29;20038;-78
2020/12/06 10:11:01;;;;;;;135.20;72.60;;;;;;;10.21;80.18;99396.28;4839519;29;20480;-78
2020/12/06 10:13:26;;;;;;;121.55;62.92;;;;;;;10.21;80.04;99385.59;4834595;29;20041;-78
2020/12/06 10:15:51;;;;;;;105.63;55.83;;;;;;;10.23;79.69;99383.47;4841974;29;20491;-79
2020/12/06 10:18:17;;;;;;;111.05;58.00;;;;;;;10.24;79.47;99388.53;4841363;29;20051;-81
2020/12/06 10:20:42;;;;;;;62.03;33.67;;;;;;;10.25;79.87;99383.97;4841359;29;20585;-80
2020/12/06 10:23:08;;;;;;;67.88;36.30;;;;;;;10.27;79.17;99381.06;4841978;29;20097;-79
2020/12/06 10:25:33;;;;;;;86.15;44.17;;;;;;;10.28;79.32;99374.63;4841457;29;20091;-80
2020/12/06 10:27:58;;;;;;;71.07;37.00;;;;;;;10.27;79.08;99378.41;4842246;29;20073;-79
2020/12/06 10:30:24;;;;;;;69.90;35.97;;;;;;;10.27;79.45;99381.84;4841948;29;20037;-79
2020/12/06 10:32:49;;;;;;;54.60;29.40;;;;;;;10.28;79.49;99378.13;4841776;29;20041;-78
2020/12/06 10:35:14;;;;;;;58.38;27.95;;;;;;;10.26;79.31;99369.56;4842285;29;20471;-78
2020/12/06 10:37:40;;;;;;;43.95;24.63;;;;;;;10.21;79.46;99365.00;4826325;29;20052;-77
2020/12/06 10:40:06;;;;;;;54.60;28.77;;;;;;;10.20;79.34;99359.94;4841402;29;20033;-78
2020/12/06 10:42:31;;;;;;;49.50;27.38;;;;;;;10.19;79.69;99358.31;4840225;29;20472;-78
2020/12/06 10:44:57;;;;;;;45.70;25.30;;;;;;;10.20;79.85;99367.94;4842062;29;20124;-80
2020/12/06 10:47:22;;;;;;;44.65;25.27;;;;;;;10.18;79.32;99362.88;4842179;29;20448;-78
2020/12/06 10:49:48;;;;;;;44.67;22.08;;;;;;;10.16;79.40;99356.19;4841923;29;20071;-81
2020/12/06 10:52:13;;;;;;;48.92;24.20;;;;;;;10.14;79.54;99359.09;4837556;29;20414;-76
2020/12/06 10:54:38;;;;;;;47.92;23.88;;;;;;;10.13;79.68;99354.03;4835032;29;20063;-78
2020/12/06 10:57:05;;;;;;;47.83;23.60;;;;;;;10.13;79.68;99354.03;4832944;29;20037;-77
2020/12/06 10:59:32;;;;;;;45.08;22.55;;;;;;;10.10;80.05;99366.84;4841203;29;20110;-79
2020/12/06 11:01:58;;;;;;;50.60;24.58;;;;;;;10.12;79.94;99358.59;4841945;29;20456;-81
2020/12/06 11:04:24;;;;;;;42.78;23.95;;;;;;;10.12;79.90;99350.56;4842098;29;20116;-80
2020/12/06 11:06:49;;;;;;;47.75;25.13;;;;;;;10.14;80.01;99345.75;4842636;29;20042;-81
2020/12/06 11:09:15;;;;;;;44.38;21.73;;;;;;;10.15;80.03;99338.53;4844828;29;20027;-79
2020/12/06 11:11:40;;;;;;;40.40;20.13;;;;;;;10.17;80.24;99336.41;4845258;29;20041;-78
2020/12/06 11:14:06;;;;;;;34.08;18.15;;;;;;;10.16;80.42;99338.28;4845675;29;20032;-80
2020/12/06 11:16:31;;;;;;;38.47;18.10;;;;;;;10.17;80.41;99333.75;4845593;29;20511;-80
2020/12/06 11:18:56;;;;;;;33.03;16.63;;;;;;;10.19;80.72;99335.09;4845526;29;20106;-78
2020/12/06 11:21:22;;;;;;;32.17;17.73;;;;;;;10.21;80.42;99330.25;4845478;29;20502;-78
2020/12/06 11:23:48;;;;;;;31.50;17.48;;;;;;;10.20;80.32;99328.66;4845291;29;20029;-78
2020/12/06 11:26:17;;;;;;;29.15;14.98;;;;;;;10.16;80.51;99332.13;4845436;29;20048;-77
2020/12/06 11:28:47;;;;;;;30.95;16.95;;;;;;;10.14;80.50;99326.25;4845130;29;20040;-79
2020/12/06 11:31:14;;;;;;;31.45;17.40;;;;;;;10.13;80.64;99322.78;4845247;29;20112;-80
2020/12/06 11:33:39;;;;;;;34.72;17.35;;;;;;;10.11;81.01;99319.56;4844987;29;20038;-78
2020/12/06 11:36:05;;;;;;;36.60;16.83;;;;;;;10.10;80.83;99326.75;4845306;29;20033;-79
2020/12/06 11:38:31;;;;;;;37.55;17.20;;;;;;;10.08;80.81;99318.22;4845490;29;20403;-80